createdAt,value
2023-08-28T00:01:30.166Z,51708.09
2023-08-28T00:04:02.211Z,51714.93
2023-08-28T00:06:34.095Z,51708.09
2023-08-28T00:09:06.866Z,51707.29
2023-08-28T00:11:38.972Z,51711.71
2023-08-28T00:14:11.141Z,51710.91
2023-08-28T00:16:43.072Z,51709.30
2023-08-28T00:19:15.231Z,51710.10
2023-08-28T00:21:47.260Z,51712.11
2023-08-28T00:24:19.148Z,51715.32
2023-08-28T00:26:51.349Z,51739.03
2023-08-28T00:29:23.289Z,51716.13
2023-08-28T00:31:55.612Z,51725.77
2023-08-28T00:34:28.319Z,51712.51
2023-08-28T00:37:00.380Z,51711.71
2023-08-28T00:39:32.413Z,51723.76
2023-08-28T00:42:04.410Z,51739.43
2023-08-28T00:44:36.676Z,51717.34
2023-08-28T00:47:11.917Z,51719.34
2023-08-28T00:49:44.935Z,51739.03
2023-08-28T00:52:17.166Z,51749.88
2023-08-28T00:54:49.076Z,51731.80
2023-08-28T00:57:22.244Z,51740.24
2023-08-28T00:59:54.254Z,51737.02
2023-08-28T01:02:26.202Z,51737.43
2023-08-28T01:04:59.950Z,51744.26
2023-08-28T01:07:36.163Z,51741.85
2023-08-28T01:10:12.449Z,51741.84
2023-08-28T01:12:49.232Z,51746.67
2023-08-28T01:15:22.204Z,51751.49
2023-08-28T01:17:56.240Z,51742.24
2023-08-28T01:20:29.751Z,51748.27
2023-08-28T01:23:04.640Z,51765.55
2023-08-28T01:25:37.472Z,51757.92
2023-08-28T01:28:09.524Z,51745.86
2023-08-28T01:30:41.884Z,51764.75
2023-08-28T01:33:14.211Z,51761.13
2023-08-28T01:35:46.672Z,51763.54
2023-08-28T01:38:25.735Z,51761.93
2023-08-28T01:41:00.198Z,51763.95
2023-08-28T01:43:33.705Z,51768.37
2023-08-28T01:46:06.285Z,51780.82
2023-08-28T01:48:43.793Z,51765.15
2023-08-28T01:51:15.736Z,51778.81
2023-08-28T01:53:47.637Z,51771.58
2023-08-28T01:56:21.921Z,51760.73
2023-08-28T01:58:55.408Z,51780.41
2023-08-28T02:01:28.155Z,51769.57
2023-08-28T02:04:01.766Z,51761.13
2023-08-28T02:06:33.948Z,51778.41
2023-08-28T02:09:06.425Z,51772.79
2023-08-28T02:11:38.555Z,51773.59
2023-08-28T02:14:11.228Z,51767.56
2023-08-28T02:16:43.326Z,51768.36
2023-08-28T02:19:15.541Z,51770.77
2023-08-28T02:21:47.599Z,51770.77
2023-08-28T02:24:19.767Z,51780.82
2023-08-28T02:26:52.129Z,51772.79
2023-08-28T02:29:24.593Z,51768.37
2023-08-28T02:31:56.482Z,51785.24
2023-08-28T02:34:29.344Z,51769.17
2023-08-28T02:37:01.270Z,51801.71
2023-08-28T02:39:34.332Z,51775.59
2023-08-28T02:42:06.957Z,51786.04
2023-08-28T02:44:39.149Z,51771.58
2023-08-28T02:47:11.872Z,51787.65
2023-08-28T02:49:44.058Z,51779.21
2023-08-28T02:52:16.128Z,51780.02
2023-08-28T02:54:48.834Z,51763.14
2023-08-28T02:57:20.813Z,51783.63
2023-08-28T02:59:52.749Z,51775.60
2023-08-28T03:02:24.749Z,51782.83
2023-08-28T03:04:57.074Z,51776.80
2023-08-28T03:07:29.112Z,51786.04
2023-08-28T03:10:01.191Z,51780.02
2023-08-28T03:12:33.208Z,51773.19
2023-08-28T03:15:05.695Z,51771.18
2023-08-28T03:17:37.987Z,51759.52
2023-08-28T03:20:11.756Z,51769.16
2023-08-28T03:22:44.001Z,51776.00
2023-08-28T03:25:16.342Z,51773.19
2023-08-28T03:27:48.557Z,51756.71
2023-08-28T03:30:20.728Z,51769.57
2023-08-28T03:32:52.618Z,51770.38
2023-08-28T03:35:24.981Z,51780.02
2023-08-28T03:37:56.906Z,51760.73
2023-08-28T03:40:29.033Z,51769.17
2023-08-28T03:43:01.587Z,51763.14
2023-08-28T03:45:34.634Z,51790.06
2023-08-28T03:48:07.920Z,51775.20
2023-08-28T03:50:40.808Z,51765.95
2023-08-28T03:53:12.856Z,51773.18
2023-08-28T03:55:44.828Z,51759.12
2023-08-28T03:58:17.033Z,51753.50
2023-08-28T04:00:50.229Z,51755.10
2023-08-28T04:03:22.862Z,51760.73
2023-08-28T04:05:55.586Z,51756.31
2023-08-28T04:08:28.567Z,51752.70
2023-08-28T04:11:02.360Z,51757.52
2023-08-28T04:13:34.251Z,51784.44
2023-08-28T04:16:07.366Z,51769.17
2023-08-28T04:18:39.304Z,51765.15
2023-08-28T04:21:11.371Z,51753.09
2023-08-28T04:23:43.366Z,51761.13
2023-08-28T04:26:15.295Z,51762.74
2023-08-28T04:28:47.286Z,51777.21
2023-08-28T04:31:20.565Z,51772.38
2023-08-28T04:33:52.646Z,51772.79
2023-08-28T04:36:24.666Z,51768.77
2023-08-28T04:38:56.985Z,51763.95
2023-08-28T04:41:28.958Z,51767.16
2023-08-28T04:44:01.095Z,51766.76
2023-08-28T04:46:34.047Z,51765.55
2023-08-28T04:49:06.747Z,51758.31
2023-08-28T04:51:38.682Z,51763.95
2023-08-28T04:54:10.867Z,51737.02
2023-08-28T04:56:43.057Z,51741.84
2023-08-28T04:59:15.097Z,51735.01
2023-08-28T05:01:46.989Z,51734.61
2023-08-28T05:04:19.062Z,51740.64
2023-08-28T05:06:51.093Z,51720.55
2023-08-28T05:09:23.148Z,51715.73
2023-08-28T05:11:55.228Z,51709.70
2023-08-28T05:14:27.774Z,51704.48
2023-08-28T05:16:59.844Z,51694.84
2023-08-28T05:19:31.973Z,51696.84
2023-08-28T05:22:04.956Z,51704.88
2023-08-28T05:24:37.215Z,51692.42
2023-08-28T05:27:10.550Z,51682.38
2023-08-28T05:29:42.704Z,51680.77
2023-08-28T05:32:15.583Z,51682.78
2023-08-28T05:34:49.222Z,51674.74
2023-08-28T05:37:28.925Z,51678.36
2023-08-28T05:40:01.103Z,51674.34
2023-08-28T05:42:33.671Z,51658.67
2023-08-28T05:45:06.341Z,51661.88
2023-08-28T05:47:39.979Z,51650.63
2023-08-28T05:50:13.854Z,51657.46
2023-08-28T05:52:45.953Z,51664.29
2023-08-28T05:55:18.388Z,51655.45
2023-08-28T05:57:50.585Z,51657.46
2023-08-28T06:00:23.413Z,51644.61
2023-08-28T06:02:55.789Z,51638.58
2023-08-28T06:05:28.097Z,51639.79
2023-08-28T06:08:00.277Z,51634.96
2023-08-28T06:10:35.353Z,51630.95
2023-08-28T06:13:07.998Z,51626.93
2023-08-28T06:15:39.943Z,51637.38
2023-08-28T06:18:11.917Z,51598.40
2023-08-28T06:20:44.529Z,51614.48
2023-08-28T06:23:19.124Z,51600.01
2023-08-28T06:25:51.595Z,51602.42
2023-08-28T06:28:24.009Z,51608.85
2023-08-28T06:30:56.370Z,51601.21
2023-08-28T06:33:28.463Z,51581.52
2023-08-28T06:36:01.096Z,51580.72
2023-08-28T06:38:32.987Z,51587.55
2023-08-28T06:41:05.333Z,51585.54
2023-08-28T06:43:37.290Z,51574.70
2023-08-28T06:46:09.264Z,51567.46
2023-08-28T06:48:41.651Z,51562.24
2023-08-28T06:51:14.233Z,51573.89
2023-08-28T06:53:46.299Z,51568.27
2023-08-28T06:56:18.263Z,51567.06
2023-08-28T06:58:50.225Z,51567.46
2023-08-28T07:01:23.826Z,51550.59
2023-08-28T07:03:55.829Z,51544.16
2023-08-28T07:06:27.866Z,51554.20
2023-08-28T07:09:00.985Z,51549.79
2023-08-28T07:11:33.124Z,51538.13
2023-08-28T07:14:05.729Z,51526.88
2023-08-28T07:16:37.893Z,51504.79
2023-08-28T07:19:10.051Z,51515.23
2023-08-28T07:21:42.005Z,51501.97
2023-08-28T07:24:14.194Z,51504.38
2023-08-28T07:26:46.449Z,51500.36
2023-08-28T07:29:18.905Z,51499.56
2023-08-28T07:31:50.951Z,51479.88
2023-08-28T07:34:22.873Z,51471.03
2023-08-28T07:36:55.096Z,51467.82
2023-08-28T07:39:27.129Z,51455.36
2023-08-28T07:42:00.570Z,51464.60
2023-08-28T07:44:32.544Z,51455.77
2023-08-28T07:47:04.723Z,51446.13
2023-08-28T07:49:36.545Z,51452.55
2023-08-28T07:52:08.962Z,51433.27
2023-08-28T07:54:40.877Z,51439.70
2023-08-28T07:57:13.346Z,51432.87
2023-08-28T07:59:45.231Z,51430.46
2023-08-28T08:02:17.341Z,51445.72
2023-08-28T08:04:49.146Z,51444.52
2023-08-28T08:07:21.226Z,51453.76
2023-08-28T08:09:53.207Z,51433.66
2023-08-28T08:12:28.583Z,51419.61
2023-08-28T08:15:00.564Z,51427.24
2023-08-28T08:17:32.703Z,51432.86
2023-08-28T08:20:05.780Z,51405.95
2023-08-28T08:22:38.258Z,51400.32
2023-08-28T08:25:12.809Z,51404.34
2023-08-28T08:27:47.145Z,51396.70
2023-08-28T08:30:19.453Z,51393.49
2023-08-28T08:32:51.576Z,51388.67
2023-08-28T08:35:23.644Z,51381.04
2023-08-28T08:37:55.610Z,51366.17
2023-08-28T08:40:29.432Z,51356.52
2023-08-28T08:43:03.533Z,51348.09
2023-08-28T08:45:37.086Z,51324.79
2023-08-28T08:48:10.538Z,51319.96
2023-08-28T08:50:44.028Z,51321.17
2023-08-28T08:53:19.100Z,51334.02
2023-08-28T08:55:50.890Z,51307.91
2023-08-28T08:58:23.149Z,51317.55
2023-08-28T09:00:55.048Z,51301.08
2023-08-28T09:03:27.115Z,51299.07
2023-08-28T09:06:00.658Z,51297.46
2023-08-28T09:08:32.703Z,51303.49
2023-08-28T09:11:06.180Z,51287.82
2023-08-28T09:13:38.386Z,51269.75
2023-08-28T09:16:11.111Z,51264.92
2023-08-28T09:18:43.927Z,51258.09
2023-08-28T09:21:17.765Z,51266.13
2023-08-28T09:23:52.763Z,51263.32
2023-08-28T09:26:25.766Z,51244.03
2023-08-28T09:29:05.806Z,51235.59
2023-08-28T09:31:38.314Z,51233.99
2023-08-28T09:34:10.555Z,51239.61
2023-08-28T09:36:45.602Z,51232.79
2023-08-28T09:39:18.044Z,51199.84
2023-08-28T09:41:50.437Z,51210.69
2023-08-28T09:44:22.445Z,51200.24
2023-08-28T09:46:57.222Z,51210.69
2023-08-28T09:49:29.205Z,51194.21
2023-08-28T09:52:04.863Z,51190.59
2023-08-28T09:54:36.805Z,51189.79
2023-08-28T09:57:20.192Z,51209.08
2023-08-28T09:59:52.485Z,51219.52
2023-08-28T10:02:25.168Z,51202.25
2023-08-28T10:04:57.280Z,51205.86
2023-08-28T10:07:30.684Z,51209.07
2023-08-28T10:10:04.275Z,51223.54
2023-08-28T10:12:36.578Z,51213.09
2023-08-28T10:15:10.381Z,51201.84
2023-08-28T10:17:42.556Z,51209.88
2023-08-28T10:20:14.999Z,51202.65
2023-08-28T10:22:46.947Z,51206.67
2023-08-28T10:25:20.508Z,51207.07
2023-08-28T10:27:52.765Z,51217.52
2023-08-28T10:30:25.373Z,51202.65
2023-08-28T10:32:57.736Z,51206.27
2023-08-28T10:35:29.873Z,51209.88
2023-08-28T10:38:01.836Z,51200.24
2023-08-28T10:40:34.713Z,51209.48
2023-08-28T10:43:07.227Z,51200.24
2023-08-28T10:45:40.225Z,51216.31
2023-08-28T10:48:12.164Z,51203.86
2023-08-28T10:50:44.166Z,51201.85
2023-08-28T10:53:17.965Z,51200.24
2023-08-28T10:55:56.069Z,51193.81
2023-08-28T10:58:30.686Z,51184.17
2023-08-28T11:01:16.925Z,51182.16
2023-08-28T11:03:59.509Z,51180.15
2023-08-28T11:06:43.948Z,51188.19
2023-08-28T11:09:37.224Z,51171.71
2023-08-28T11:12:32.011Z,51191.00
2023-08-28T11:15:08.126Z,51165.69
2023-08-28T11:17:40.414Z,51162.07
2023-08-28T11:20:13.547Z,51167.70
2023-08-28T11:22:48.237Z,51172.92
2023-08-28T11:25:38.634Z,51146.40
2023-08-28T11:28:24.114Z,51152.03
2023-08-28T11:30:56.379Z,51153.23
2023-08-28T11:33:28.818Z,51143.99
2023-08-28T11:36:04.900Z,51156.04
2023-08-28T11:38:37.066Z,51154.04
2023-08-28T11:41:10.158Z,51163.68
2023-08-28T11:43:43.036Z,51176.94
2023-08-28T11:46:15.446Z,51197.83
2023-08-28T11:48:49.901Z,51195.02
2023-08-28T11:51:28.547Z,51170.51
2023-08-28T11:54:01.415Z,51192.61
2023-08-28T11:56:37.307Z,51174.13
2023-08-28T11:59:09.302Z,51197.83
2023-08-28T12:01:41.427Z,51202.65
2023-08-28T12:04:13.655Z,51176.14
2023-08-28T12:06:45.846Z,51197.02
2023-08-28T12:09:18.024Z,51222.34
2023-08-28T12:11:50.150Z,51203.86
2023-08-28T12:14:24.139Z,51189.39
2023-08-28T12:17:02.235Z,51191.00
2023-08-28T12:19:36.199Z,51232.38
2023-08-28T12:22:13.015Z,51218.72
2023-08-28T12:24:45.833Z,51196.22
2023-08-28T12:27:18.472Z,51194.21
2023-08-28T12:29:50.537Z,51165.69
2023-08-28T12:32:23.125Z,51173.32
2023-08-28T12:34:55.248Z,51169.30
2023-08-28T12:37:27.187Z,51159.66
2023-08-28T12:39:59.631Z,51157.66
2023-08-28T12:42:31.596Z,51149.22
2023-08-28T12:45:05.100Z,51160.46
2023-08-28T12:47:38.725Z,51162.48
2023-08-28T12:50:12.417Z,51158.46
2023-08-28T12:52:46.051Z,51146.80
2023-08-28T12:55:18.340Z,51144.00
2023-08-28T12:57:50.574Z,51151.23
2023-08-28T13:00:25.344Z,51129.93
2023-08-28T13:02:57.588Z,51142.79
2023-08-28T13:05:29.942Z,51134.75
2023-08-28T13:08:09.585Z,51161.27
2023-08-28T13:10:45.458Z,51167.70
2023-08-28T13:13:17.741Z,51169.30
2023-08-28T13:15:50.139Z,51174.53
2023-08-28T13:18:22.247Z,51174.93
2023-08-28T13:20:54.989Z,51178.14
2023-08-28T13:23:27.326Z,51168.10
2023-08-28T13:25:59.467Z,51143.99
2023-08-28T13:28:31.504Z,51127.93
2023-08-28T13:31:09.993Z,51149.62
2023-08-28T13:33:41.955Z,51128.32
2023-08-28T13:36:13.921Z,51146.80
2023-08-28T13:38:46.018Z,51148.82
2023-08-28T13:41:19.839Z,51144.00
2023-08-28T13:43:51.730Z,51146.80
2023-08-28T13:46:23.770Z,51177.34
2023-08-28T13:48:55.935Z,51156.04
2023-08-28T13:51:28.146Z,51130.34
2023-08-28T13:54:00.202Z,51141.59
2023-08-28T13:56:32.242Z,51135.55
2023-08-28T13:59:07.211Z,51127.52
2023-08-28T14:01:39.918Z,51128.33
2023-08-28T14:04:12.079Z,51120.29
2023-08-28T14:06:43.964Z,51125.91
2023-08-28T14:09:15.975Z,51130.34
2023-08-28T14:11:48.173Z,51139.18
2023-08-28T14:14:20.417Z,51150.83
2023-08-28T14:16:52.491Z,51133.95
2023-08-28T14:19:24.479Z,51141.58
2023-08-28T14:21:56.448Z,51144.40
2023-08-28T14:24:28.410Z,51145.20
2023-08-28T14:27:02.005Z,51130.34
2023-08-28T14:29:34.626Z,51149.21
2023-08-28T14:32:07.247Z,51149.22
2023-08-28T14:34:39.210Z,51138.77
2023-08-28T14:37:11.341Z,51172.52
2023-08-28T14:39:43.453Z,51160.07
2023-08-28T14:42:15.386Z,51168.10
2023-08-28T14:44:47.453Z,51175.73
2023-08-28T14:47:19.448Z,51193.81
2023-08-28T14:49:51.704Z,51181.36
2023-08-28T14:52:23.661Z,51157.25
2023-08-28T14:54:55.616Z,51180.55
2023-08-28T14:57:27.716Z,51163.68
2023-08-28T14:59:59.683Z,51183.77
2023-08-28T15:02:32.086Z,51172.92
2023-08-28T15:05:04.664Z,51178.14
2023-08-28T15:07:37.030Z,51174.13
2023-08-28T15:10:10.161Z,51160.87
2023-08-28T15:12:42.241Z,51178.95
2023-08-28T15:15:14.602Z,51180.96
2023-08-28T15:17:46.558Z,51177.34
2023-08-28T15:20:18.741Z,51193.41
2023-08-28T15:22:51.071Z,51196.62
2023-08-28T15:25:23.032Z,51208.68
2023-08-28T15:27:55.101Z,51186.58
2023-08-28T15:30:29.722Z,51191.00
2023-08-28T15:33:01.905Z,51225.95
2023-08-28T15:35:34.469Z,51231.98
2023-08-28T15:38:07.131Z,51235.20
2023-08-28T15:40:39.317Z,51241.62
2023-08-28T15:43:11.471Z,51244.43
2023-08-28T15:45:51.431Z,51238.41
2023-08-28T15:48:23.681Z,51268.14
2023-08-28T15:50:55.720Z,51266.53
2023-08-28T15:53:27.716Z,51273.36
2023-08-28T15:55:59.942Z,51291.84
2023-08-28T15:58:32.743Z,51278.98
2023-08-28T16:01:04.972Z,51299.48
2023-08-28T16:03:37.320Z,51290.64
2023-08-28T16:06:10.867Z,51298.27
2023-08-28T16:08:43.212Z,51316.35
2023-08-28T16:11:15.166Z,51336.84
2023-08-28T16:13:47.563Z,51327.20
2023-08-28T16:16:19.682Z,51340.86
2023-08-28T16:18:51.919Z,51340.45
2023-08-28T16:21:23.995Z,51349.70
2023-08-28T16:23:55.978Z,51349.70
2023-08-28T16:26:28.092Z,51353.71
2023-08-28T16:29:00.087Z,51354.52
2023-08-28T16:31:32.164Z,51393.89
2023-08-28T16:34:05.053Z,51386.26
2023-08-28T16:36:37.292Z,51388.67
2023-08-28T16:39:09.327Z,51369.79
2023-08-28T16:41:41.438Z,51379.83
2023-08-28T16:44:13.570Z,51386.66
2023-08-28T16:46:46.210Z,51385.86
2023-08-28T16:49:18.262Z,51395.10
2023-08-28T16:51:50.272Z,51391.88
2023-08-28T16:54:22.168Z,51385.05
2023-08-28T16:56:54.335Z,51393.09
2023-08-28T16:59:26.525Z,51396.30
2023-08-28T17:01:58.529Z,51396.30
2023-08-28T17:04:30.545Z,51407.55
2023-08-28T17:07:02.591Z,51391.48
2023-08-28T17:09:34.607Z,51415.18
2023-08-28T17:12:07.642Z,51416.79
2023-08-28T17:14:39.554Z,51435.27
2023-08-28T17:17:12.173Z,51423.22
2023-08-28T17:19:44.588Z,51414.38
2023-08-28T17:22:16.483Z,51407.55
2023-08-28T17:24:48.762Z,51419.60
2023-08-28T17:27:20.993Z,51417.60
2023-08-28T17:29:53.045Z,51406.35
2023-08-28T17:32:30.506Z,51410.36
2023-08-28T17:35:02.556Z,51430.05
2023-08-28T17:37:34.461Z,51419.60
2023-08-28T17:40:09.288Z,51414.38
2023-08-28T17:42:41.624Z,51416.79
2023-08-28T17:45:14.002Z,51438.49
2023-08-28T17:47:45.935Z,51413.98
2023-08-28T17:50:19.322Z,51396.30
2023-08-28T17:52:51.410Z,51414.38
2023-08-28T17:55:23.662Z,51416.79
2023-08-28T17:57:55.553Z,51393.09
2023-08-28T18:00:27.610Z,51430.86
2023-08-28T18:03:03.754Z,51438.09
2023-08-28T18:05:54.258Z,51457.38
2023-08-28T18:08:28.209Z,51441.30
2023-08-28T18:11:00.173Z,51413.58
2023-08-28T18:13:32.129Z,51425.23
2023-08-28T18:16:14.512Z,51439.29
2023-08-28T18:18:47.019Z,51439.70
2023-08-28T18:21:19.050Z,51436.88
2023-08-28T18:23:52.641Z,51436.88
2023-08-28T18:26:24.927Z,51440.10
2023-08-28T18:28:57.731Z,51455.77
2023-08-28T18:31:30.681Z,51454.16
2023-08-28T18:34:02.797Z,51452.15
2023-08-28T18:36:34.956Z,51457.77
2023-08-28T18:39:07.153Z,51454.56
2023-08-28T18:41:39.877Z,51457.77
2023-08-28T18:44:12.028Z,51464.20
2023-08-28T18:46:44.034Z,51460.59
2023-08-28T18:49:16.098Z,51454.56
2023-08-28T18:51:49.349Z,51469.02
2023-08-28T18:54:22.115Z,51472.24
2023-08-28T18:56:54.042Z,51465.80
2023-08-28T18:59:26.176Z,51476.66
2023-08-28T19:01:58.518Z,51480.68
2023-08-28T19:04:30.412Z,51470.63
2023-08-28T19:07:02.235Z,51474.25
2023-08-28T19:09:36.241Z,51475.86
2023-08-28T19:12:09.621Z,51491.52
2023-08-28T19:14:42.201Z,51491.93
2023-08-28T19:17:14.663Z,51490.72
2023-08-28T19:19:46.761Z,51486.70
2023-08-28T19:22:18.967Z,51498.36
2023-08-28T19:24:51.484Z,51499.16
2023-08-28T19:27:23.736Z,51491.52
2023-08-28T19:29:56.422Z,51502.77
2023-08-28T19:32:38.318Z,51496.75
2023-08-28T19:35:13.563Z,51506.39
2023-08-28T19:37:46.728Z,51517.64
2023-08-28T19:40:18.681Z,51497.55
2023-08-28T19:42:51.055Z,51498.35
2023-08-28T19:45:23.539Z,51499.16
2023-08-28T19:47:55.645Z,51519.65
2023-08-28T19:50:28.020Z,51506.79
2023-08-28T19:52:59.968Z,51512.42
2023-08-28T19:55:32.237Z,51524.87
2023-08-28T19:58:04.786Z,51520.86
2023-08-28T20:00:37.730Z,51527.29
2023-08-28T20:03:10.044Z,51532.91
2023-08-28T20:05:42.165Z,51531.30
2023-08-28T20:08:14.413Z,51532.51
2023-08-28T20:10:46.446Z,51525.68
2023-08-28T20:13:18.393Z,51540.14
2023-08-28T20:15:52.633Z,51506.79
2023-08-28T20:18:24.944Z,51528.49
2023-08-28T20:20:56.956Z,51542.55
2023-08-28T20:23:29.975Z,51550.59
2023-08-28T20:26:04.171Z,51550.18
2023-08-28T20:28:37.449Z,51544.96
2023-08-28T20:31:09.594Z,51557.82
2023-08-28T20:33:41.624Z,51554.61
2023-08-28T20:36:13.538Z,51561.84
2023-08-28T20:38:45.522Z,51568.27
2023-08-28T20:41:18.502Z,51557.01
2023-08-28T20:43:50.902Z,51561.03
2023-08-28T20:46:23.762Z,51553.40
2023-08-28T20:48:55.710Z,51567.86
2023-08-28T20:51:28.323Z,51562.64
2023-08-28T20:54:00.582Z,51578.71
2023-08-28T20:56:32.704Z,51586.75
2023-08-28T20:59:04.565Z,51563.84
2023-08-28T21:01:36.689Z,51569.87
2023-08-28T21:04:09.157Z,51579.52
2023-08-28T21:06:41.092Z,51570.68
2023-08-28T21:09:13.006Z,51569.88
2023-08-28T21:11:45.572Z,51559.83
2023-08-28T21:14:17.677Z,51552.20
2023-08-28T21:16:50.090Z,51557.02
2023-08-28T21:19:27.598Z,51568.67
2023-08-28T21:22:00.154Z,51548.18
2023-08-28T21:24:31.984Z,51550.19
2023-08-28T21:27:04.502Z,51553.40
2023-08-28T21:29:37.443Z,51555.81
2023-08-28T21:32:10.006Z,51561.84
2023-08-28T21:34:41.855Z,51563.04
2023-08-28T21:37:13.763Z,51555.81
2023-08-28T21:39:45.969Z,51559.43
2023-08-28T21:42:17.817Z,51580.32
2023-08-28T21:44:49.841Z,51563.04
2023-08-28T21:47:21.807Z,51556.61
2023-08-28T21:50:14.364Z,51583.54
2023-08-28T21:53:05.718Z,51590.36
2023-08-28T21:55:56.069Z,51571.48
2023-08-28T21:58:46.463Z,51564.24
2023-08-28T22:01:37.502Z,51587.15
2023-08-28T22:04:27.651Z,51575.90
2023-08-28T22:07:18.653Z,51558.22
2023-08-28T22:10:08.473Z,51558.62
2023-08-28T22:12:52.290Z,51561.44
2023-08-28T22:15:33.228Z,51581.93
2023-08-28T22:18:06.278Z,51560.63
2023-08-28T22:20:43.276Z,51563.45
2023-08-28T22:23:15.564Z,51572.29
2023-08-28T22:25:47.595Z,51598.40
2023-08-28T22:28:19.593Z,51610.85
2023-08-28T22:30:51.614Z,51622.51
2023-08-28T22:33:23.698Z,51600.41
2023-08-28T22:35:55.667Z,51603.22
2023-08-28T22:38:27.595Z,51614.07
2023-08-28T22:40:59.751Z,51612.06
2023-08-28T22:43:31.698Z,51604.83
2023-08-28T22:46:03.690Z,51607.24
2023-08-28T22:48:37.142Z,51608.84
2023-08-28T22:51:10.218Z,51639.79
2023-08-28T22:53:42.206Z,51630.95
2023-08-28T22:56:14.911Z,51634.96
2023-08-28T22:58:47.057Z,51625.73
2023-08-28T23:01:18.938Z,51643.80
2023-08-28T23:03:50.929Z,51652.64
2023-08-28T23:06:23.698Z,51644.61
2023-08-28T23:08:55.605Z,51640.19
2023-08-28T23:11:27.425Z,51643.80
2023-08-28T23:13:59.329Z,51654.25
2023-08-28T23:16:31.204Z,51651.84
2023-08-28T23:19:03.441Z,51650.63
2023-08-28T23:21:35.336Z,51644.61
2023-08-28T23:24:09.713Z,51667.51
2023-08-28T23:26:41.727Z,51637.78
2023-08-28T23:29:15.574Z,51649.83
2023-08-28T23:31:47.616Z,51662.69
2023-08-28T23:34:19.543Z,51650.23
2023-08-28T23:36:52.476Z,51637.38
2023-08-28T23:39:24.458Z,51658.27
2023-08-28T23:41:56.344Z,51640.59
2023-08-28T23:44:28.280Z,51641.79
2023-08-28T23:47:00.158Z,51655.86
2023-08-28T23:49:32.154Z,51649.43
2023-08-28T23:52:04.142Z,51647.82
2023-08-28T23:54:36.120Z,51660.28
2023-08-28T23:57:08.648Z,51656.66
2023-08-28T23:59:40.972Z,51648.63
